createdAt,value
2018-10-03T00:01:56.598Z,81.10
2018-10-03T00:04:24.779Z,80.19
2018-10-03T00:06:52.973Z,79.84
2018-10-03T00:09:21.328Z,80.15
2018-10-03T00:11:49.507Z,80.18
2018-10-03T00:14:17.674Z,79.36
2018-10-03T00:16:45.907Z,78.93
2018-10-03T00:19:14.078Z,78.87
2018-10-03T00:21:42.463Z,78.20
2018-10-03T00:24:10.625Z,77.91
2018-10-03T00:26:38.809Z,77.25
2018-10-03T00:29:06.953Z,77.64
2018-10-03T00:31:35.567Z,77.07
2018-10-03T00:34:03.720Z,77.16
2018-10-03T00:36:31.981Z,77.23
2018-10-03T00:39:00.127Z,76.71
2018-10-03T00:41:28.259Z,77.23
2018-10-03T00:43:56.447Z,76.52
2018-10-03T00:46:24.626Z,76.73
2018-10-03T00:48:52.795Z,76.82
2018-10-03T00:51:20.947Z,77.13
2018-10-03T00:53:49.073Z,76.62
2018-10-03T00:56:17.251Z,77.34
2018-10-03T00:58:45.423Z,76.69
2018-10-03T01:01:13.606Z,76.83
2018-10-03T01:03:41.775Z,76.87
2018-10-03T01:06:09.980Z,76.77
2018-10-03T01:08:38.171Z,77.08
2018-10-03T01:11:06.358Z,77.11
2018-10-03T01:13:34.575Z,76.54
2018-10-03T01:16:02.811Z,76.09
2018-10-03T01:18:30.941Z,76.38
2018-10-03T01:20:59.220Z,76.72
2018-10-03T01:23:27.425Z,77.04
2018-10-03T01:25:55.729Z,76.98
2018-10-03T01:28:23.883Z,76.02
2018-10-03T01:30:52.735Z,76.15
2018-10-03T01:33:20.998Z,77.42
2018-10-03T01:35:49.242Z,79.68
2018-10-03T01:38:17.498Z,81.55
2018-10-03T01:40:45.595Z,82.39
2018-10-03T01:43:13.740Z,83.71
2018-10-03T01:45:41.940Z,84.84
2018-10-03T01:48:10.089Z,85.95
2018-10-03T01:50:38.272Z,86.53
2018-10-03T01:53:06.589Z,86.03
2018-10-03T01:55:41.346Z,83.97
2018-10-03T01:58:09.495Z,84.37
2018-10-03T02:00:37.677Z,84.62
2018-10-03T02:03:05.935Z,83.28
2018-10-03T02:05:34.552Z,83.01
2018-10-03T02:08:02.724Z,83.43
2018-10-03T02:10:31.018Z,82.75
2018-10-03T02:12:59.155Z,83.67
2018-10-03T02:15:27.323Z,83.62
2018-10-03T02:17:55.429Z,83.42
2018-10-03T02:20:23.596Z,82.56
2018-10-03T02:22:51.744Z,82.30
2018-10-03T02:25:19.895Z,81.91
2018-10-03T02:27:48.085Z,81.13
2018-10-03T02:30:16.254Z,81.32
2018-10-03T02:32:44.403Z,81.24
2018-10-03T02:35:12.552Z,80.51
2018-10-03T02:37:40.788Z,80.27
2018-10-03T02:40:08.949Z,80.66
2018-10-03T02:42:37.180Z,79.95
2018-10-03T02:45:05.519Z,79.97
2018-10-03T02:47:33.841Z,79.62
2018-10-03T02:50:02.034Z,78.96
2018-10-03T02:52:30.244Z,79.19
2018-10-03T02:54:58.639Z,78.49
2018-10-03T02:57:26.827Z,77.33
2018-10-03T02:59:54.986Z,76.75
2018-10-03T03:02:23.160Z,77.24
2018-10-03T03:04:51.377Z,76.44
2018-10-03T03:07:19.661Z,76.20
2018-10-03T03:09:47.835Z,76.62
2018-10-03T03:12:16.061Z,76.93
2018-10-03T03:14:44.295Z,77.02
2018-10-03T03:17:12.453Z,77.13
2018-10-03T03:19:40.575Z,76.85
2018-10-03T03:22:08.749Z,76.70
2018-10-03T03:24:36.929Z,76.64
2018-10-03T03:27:05.087Z,77.24
2018-10-03T03:29:39.981Z,77.45
2018-10-03T03:32:08.188Z,78.03
2018-10-03T03:34:36.370Z,76.92
2018-10-03T03:37:04.561Z,76.57
2018-10-03T03:39:32.751Z,76.67
2018-10-03T03:42:00.989Z,76.92
2018-10-03T03:44:29.264Z,77.07
2018-10-03T03:46:57.502Z,77.27
2018-10-03T03:49:25.729Z,76.58
2018-10-03T03:51:54.023Z,76.96
2018-10-03T03:54:22.278Z,76.68
2018-10-03T03:56:50.443Z,76.59
2018-10-03T03:59:18.723Z,76.41
2018-10-03T04:01:47.013Z,75.80
2018-10-03T04:04:15.289Z,76.37
2018-10-03T04:06:43.459Z,75.92
2018-10-03T04:09:11.695Z,75.37
2018-10-03T04:11:39.931Z,75.61
2018-10-03T04:14:08.196Z,75.19
2018-10-03T04:16:36.383Z,75.44
2018-10-03T04:19:04.658Z,75.56
2018-10-03T04:21:38.382Z,75.41
2018-10-03T04:24:07.787Z,74.89
2018-10-03T04:26:35.949Z,74.66
2018-10-03T04:29:04.654Z,74.20
2018-10-03T04:31:33.726Z,74.13
2018-10-03T04:34:01.937Z,74.55
2018-10-03T04:36:30.156Z,74.48
2018-10-03T04:38:58.352Z,74.18
2018-10-03T04:41:26.544Z,73.77
2018-10-03T04:43:54.700Z,73.49
2018-10-03T04:46:23.082Z,73.45
2018-10-03T04:48:51.449Z,72.82
2018-10-03T04:51:19.960Z,73.58
2018-10-03T04:53:48.175Z,73.02
2018-10-03T04:56:17.106Z,73.15
2018-10-03T04:58:45.286Z,73.23
2018-10-03T05:01:13.447Z,73.57
2018-10-03T05:03:41.686Z,73.51
2018-10-03T05:06:10.039Z,72.76
2018-10-03T05:08:38.376Z,73.08
2018-10-03T05:11:06.701Z,73.54
2018-10-03T05:13:34.858Z,73.52
2018-10-03T05:16:03.066Z,73.27
2018-10-03T05:18:31.314Z,73.30
2018-10-03T05:20:59.584Z,73.87
2018-10-03T05:23:27.839Z,73.20
2018-10-03T05:25:56.075Z,72.79
2018-10-03T05:28:24.284Z,72.75
2018-10-03T05:30:52.530Z,73.37
2018-10-03T05:33:20.768Z,73.21
2018-10-03T05:35:48.934Z,73.23
2018-10-03T05:38:17.089Z,73.11
2018-10-03T05:40:45.226Z,72.76
2018-10-03T05:43:13.403Z,72.33
2018-10-03T05:45:42.235Z,72.52
2018-10-03T05:48:10.407Z,72.48
2018-10-03T05:50:38.567Z,72.46
2018-10-03T05:53:06.815Z,72.27
2018-10-03T05:55:35.047Z,72.56
2018-10-03T05:58:03.292Z,73.03
2018-10-03T06:00:32.853Z,73.42
2018-10-03T06:03:01.073Z,73.61
2018-10-03T06:05:29.254Z,73.62
2018-10-03T06:07:57.422Z,73.65
2018-10-03T06:10:25.619Z,73.54
2018-10-03T06:12:53.804Z,73.05
2018-10-03T06:15:21.958Z,72.87
2018-10-03T06:17:50.132Z,72.79
2018-10-03T06:20:18.364Z,72.59
2018-10-03T06:22:46.527Z,72.96
2018-10-03T06:25:14.680Z,72.99
2018-10-03T06:27:42.912Z,73.12
2018-10-03T06:30:11.105Z,73.09
2018-10-03T06:32:39.221Z,72.13
2018-10-03T06:35:07.385Z,71.88
2018-10-03T06:37:35.508Z,71.51
2018-10-03T06:40:03.704Z,70.73
2018-10-03T06:42:31.890Z,70.87
2018-10-03T06:45:00.226Z,70.72
2018-10-03T06:47:28.892Z,70.49
2018-10-03T06:49:57.071Z,70.50
2018-10-03T06:52:25.281Z,70.88
2018-10-03T06:54:53.533Z,71.20
2018-10-03T06:57:21.742Z,72.07
2018-10-03T06:59:49.908Z,73.52
2018-10-03T07:02:18.057Z,73.09
2018-10-03T07:04:46.200Z,74.21
2018-10-03T07:07:14.316Z,74.72
2018-10-03T07:09:42.490Z,75.86
2018-10-03T07:12:10.670Z,74.62
2018-10-03T07:14:38.851Z,74.61
2018-10-03T07:17:07.411Z,73.96
2018-10-03T07:19:35.589Z,73.57
2018-10-03T07:22:03.822Z,73.11
2018-10-03T07:24:31.978Z,71.59
2018-10-03T07:27:00.152Z,71.28
2018-10-03T07:29:28.532Z,72.17
2018-10-03T07:31:56.675Z,71.25
2018-10-03T07:34:24.958Z,70.62
2018-10-03T07:36:53.158Z,70.93
2018-10-03T07:39:22.207Z,70.21
2018-10-03T07:41:50.574Z,69.48
2018-10-03T07:44:18.815Z,69.60
2018-10-03T07:46:47.048Z,69.80
2018-10-03T07:49:15.231Z,70.42
2018-10-03T07:51:43.404Z,70.47
2018-10-03T07:54:11.654Z,70.11
2018-10-03T07:56:39.835Z,70.08
2018-10-03T07:59:08.245Z,69.50
2018-10-03T08:01:36.207Z,69.96
2018-10-03T08:04:04.391Z,69.50
2018-10-03T08:06:32.682Z,69.60
2018-10-03T08:09:00.883Z,69.33
2018-10-03T08:11:29.011Z,68.69
2018-10-03T08:13:57.201Z,68.66
2018-10-03T08:16:25.419Z,68.85
2018-10-03T08:18:53.617Z,68.39
2018-10-03T08:21:21.827Z,68.81
2018-10-03T08:23:50.058Z,68.40
2018-10-03T08:26:18.286Z,68.05
2018-10-03T08:28:46.478Z,67.90
2018-10-03T08:31:14.689Z,68.10
2018-10-03T08:33:42.889Z,67.61
2018-10-03T08:36:11.029Z,66.83
2018-10-03T08:38:39.305Z,66.88
2018-10-03T08:41:07.497Z,66.79
2018-10-03T08:43:35.707Z,66.84
2018-10-03T08:46:03.981Z,66.73
2018-10-03T08:48:32.304Z,66.24
2018-10-03T08:51:00.502Z,65.42
2018-10-03T08:53:28.687Z,65.53
2018-10-03T08:55:57.033Z,65.61
2018-10-03T08:58:25.401Z,64.08
2018-10-03T09:00:53.477Z,64.56
2018-10-03T09:03:21.726Z,63.96
2018-10-03T09:05:50.005Z,64.11
2018-10-03T09:08:18.249Z,64.33
2018-10-03T09:10:48.364Z,64.14
2018-10-03T09:13:16.556Z,64.35
2018-10-03T09:15:44.730Z,64.21
2018-10-03T09:18:12.892Z,63.00
2018-10-03T09:20:41.079Z,62.48
2018-10-03T09:23:09.366Z,63.21
2018-10-03T09:25:37.582Z,62.66
2018-10-03T09:28:05.941Z,62.87
2018-10-03T09:30:34.226Z,62.75
2018-10-03T09:33:02.476Z,63.43
2018-10-03T09:35:31.202Z,63.41
2018-10-03T09:37:59.440Z,63.52
2018-10-03T09:40:27.710Z,63.28
2018-10-03T09:42:55.989Z,63.52
2018-10-03T09:45:24.164Z,64.18
2018-10-03T09:47:52.450Z,64.50
2018-10-03T09:50:20.676Z,66.04
2018-10-03T09:52:48.872Z,65.86
2018-10-03T09:55:17.173Z,65.07
2018-10-03T09:57:45.372Z,63.19
2018-10-03T10:00:13.689Z,61.65
2018-10-03T10:02:41.872Z,60.13
2018-10-03T10:05:10.028Z,59.09
2018-10-03T10:07:38.408Z,59.19
2018-10-03T10:10:06.684Z,58.79
2018-10-03T10:12:34.902Z,59.97
2018-10-03T10:15:03.191Z,60.11
2018-10-03T10:17:31.497Z,59.88
2018-10-03T10:19:59.725Z,59.08
2018-10-03T10:22:27.960Z,59.03
2018-10-03T10:24:56.133Z,60.19
2018-10-03T10:27:24.281Z,60.87
2018-10-03T10:29:52.411Z,60.49
2018-10-03T10:32:20.692Z,60.82
2018-10-03T10:34:48.940Z,60.51
2018-10-03T10:37:17.142Z,60.08
2018-10-03T10:39:45.420Z,59.78
2018-10-03T10:42:13.698Z,58.40
2018-10-03T10:44:41.919Z,57.74
2018-10-03T10:47:10.094Z,57.33
2018-10-03T10:49:38.275Z,56.73
2018-10-03T10:52:06.539Z,57.22
2018-10-03T10:54:34.874Z,57.23
2018-10-03T10:57:03.098Z,57.59
2018-10-03T10:59:31.597Z,60.19
2018-10-03T11:02:00.552Z,62.79
2018-10-03T11:04:28.766Z,63.56
2018-10-03T11:06:57.949Z,62.99
2018-10-03T11:09:26.460Z,63.30
2018-10-03T11:11:54.763Z,62.94
2018-10-03T11:14:23.001Z,62.66
2018-10-03T11:16:52.091Z,63.10
2018-10-03T11:19:20.341Z,62.79
2018-10-03T11:21:49.248Z,64.95
2018-10-03T11:24:18.122Z,68.92
2018-10-03T11:26:46.269Z,71.09
2018-10-03T11:29:14.513Z,71.72
2018-10-03T11:31:42.800Z,72.96
2018-10-03T11:34:16.247Z,72.43
2018-10-03T11:36:44.422Z,73.51
2018-10-03T11:39:12.627Z,73.52
2018-10-03T11:41:40.854Z,73.46
2018-10-03T11:44:09.099Z,72.50
2018-10-03T11:46:37.361Z,72.56
2018-10-03T11:49:05.576Z,72.07
2018-10-03T11:51:33.849Z,70.87
2018-10-03T11:54:02.767Z,69.77
2018-10-03T11:56:32.086Z,69.43
2018-10-03T11:59:01.306Z,67.17
2018-10-03T12:01:33.280Z,66.45
2018-10-03T12:04:01.690Z,64.57
2018-10-03T12:06:30.779Z,63.17
2018-10-03T12:09:05.844Z,62.97
2018-10-03T12:11:35.752Z,61.69
2018-10-03T12:14:04.303Z,61.74
2018-10-03T12:16:32.719Z,61.94
2018-10-03T12:19:00.936Z,60.55
2018-10-03T12:21:29.099Z,59.90
2018-10-03T12:23:57.800Z,59.13
2018-10-03T12:26:26.950Z,58.62
2018-10-03T12:28:55.134Z,58.35
2018-10-03T12:31:23.340Z,55.82
2018-10-03T12:33:52.822Z,55.01
2018-10-03T12:36:21.075Z,54.26
2018-10-03T12:38:49.297Z,52.93
2018-10-03T12:41:17.604Z,53.17
2018-10-03T12:43:46.165Z,52.96
2018-10-03T12:46:14.585Z,53.30
2018-10-03T12:48:42.740Z,53.33
2018-10-03T12:51:10.918Z,52.74
2018-10-03T12:53:39.160Z,51.93
2018-10-03T12:56:07.494Z,52.86
2018-10-03T12:58:42.076Z,52.76
2018-10-03T13:01:10.327Z,51.70
2018-10-03T13:03:38.763Z,51.54
2018-10-03T13:06:07.392Z,52.12
2018-10-03T13:08:35.643Z,50.76
2018-10-03T13:11:03.832Z,51.32
2018-10-03T13:13:32.107Z,50.48
2018-10-03T13:16:01.019Z,49.60
2018-10-03T13:18:32.266Z,48.91
2018-10-03T13:21:07.045Z,48.76
2018-10-03T13:23:35.349Z,48.18
2018-10-03T13:26:03.710Z,48.16
2018-10-03T13:28:31.899Z,46.44
2018-10-03T13:31:00.105Z,46.49
2018-10-03T13:34:35.408Z,46.39
2018-10-03T13:37:03.594Z,46.72
2018-10-03T13:39:31.782Z,46.10
2018-10-03T13:42:00.022Z,46.08
2018-10-03T13:44:28.770Z,46.49
2018-10-03T13:46:57.071Z,46.05
2018-10-03T13:49:25.373Z,45.95
2018-10-03T13:51:55.533Z,45.55
2018-10-03T13:54:23.814Z,45.86
2018-10-03T13:56:51.981Z,45.57
2018-10-03T13:59:20.503Z,45.73
2018-10-03T14:01:48.902Z,45.17
2018-10-03T14:04:17.070Z,44.69
2018-10-03T14:06:45.487Z,44.52
2018-10-03T14:09:13.818Z,44.17
2018-10-03T14:11:41.977Z,43.20
2018-10-03T14:14:10.263Z,42.91
2018-10-03T14:16:38.470Z,42.46
2018-10-03T14:19:16.094Z,42.36
2018-10-03T14:21:55.711Z,42.84
2018-10-03T14:24:26.195Z,42.90
2018-10-03T14:26:54.389Z,43.43
2018-10-03T14:29:22.673Z,43.71
2018-10-03T14:31:50.888Z,44.42
2018-10-03T14:34:20.201Z,45.04
2018-10-03T14:36:55.065Z,45.69
2018-10-03T14:39:23.358Z,46.11
2018-10-03T14:41:52.042Z,46.65
2018-10-03T14:44:21.289Z,46.64
2018-10-03T14:46:49.659Z,47.06
2018-10-03T14:49:18.329Z,47.23
2018-10-03T14:51:46.576Z,47.65
2018-10-03T14:54:14.893Z,47.33
2018-10-03T14:56:43.083Z,47.20
2018-10-03T14:59:12.247Z,46.97
2018-10-03T15:01:40.501Z,47.38
2018-10-03T15:04:08.701Z,46.94
2018-10-03T15:06:36.884Z,47.07
2018-10-03T15:09:07.104Z,47.20
2018-10-03T15:11:35.311Z,46.80
2018-10-03T15:14:03.781Z,46.74
2018-10-03T15:16:32.055Z,47.10
2018-10-03T15:19:00.274Z,46.98
2018-10-03T15:21:28.523Z,46.70
2018-10-03T15:23:56.799Z,46.50
2018-10-03T15:26:25.701Z,46.01
2018-10-03T15:28:53.915Z,45.89
2018-10-03T15:31:22.215Z,46.30
2018-10-03T15:33:50.419Z,46.78
2018-10-03T15:36:18.728Z,47.40
2018-10-03T15:38:46.985Z,47.34
2018-10-03T15:41:15.251Z,47.15
2018-10-03T15:43:43.556Z,46.78
2018-10-03T15:46:11.755Z,46.81
2018-10-03T15:48:40.060Z,46.32
2018-10-03T15:51:08.307Z,46.03
2018-10-03T15:53:36.462Z,46.18
2018-10-03T15:56:04.753Z,46.09
2018-10-03T15:58:32.967Z,45.51
2018-10-03T16:01:01.222Z,46.19
2018-10-03T16:03:29.397Z,46.24
2018-10-03T16:05:57.737Z,46.44
2018-10-03T16:08:26.101Z,46.96
2018-10-03T16:10:54.558Z,47.28
2018-10-03T16:13:22.774Z,47.23
2018-10-03T16:15:51.035Z,48.08
2018-10-03T16:18:19.260Z,47.57
2018-10-03T16:20:47.455Z,48.17
2018-10-03T16:23:15.779Z,48.50
2018-10-03T16:25:43.954Z,48.27
2018-10-03T16:28:12.305Z,48.57
2018-10-03T16:30:41.180Z,48.93
2018-10-03T16:33:09.500Z,49.54
2018-10-03T16:35:37.734Z,50.42
2018-10-03T16:38:05.969Z,51.28
2018-10-03T16:40:34.270Z,51.35
2018-10-03T16:43:02.524Z,51.67
2018-10-03T16:45:30.879Z,52.24
2018-10-03T16:47:59.162Z,52.32
2018-10-03T16:50:28.167Z,52.74
2018-10-03T16:52:57.431Z,53.28
2018-10-03T16:55:25.683Z,53.71
2018-10-03T16:57:54.233Z,54.53
2018-10-03T17:00:23.035Z,54.51
2018-10-03T17:02:51.221Z,55.36
2018-10-03T17:05:19.505Z,55.82
2018-10-03T17:07:47.761Z,55.89
2018-10-03T17:10:15.999Z,56.59
2018-10-03T17:12:44.275Z,56.62
2018-10-03T17:15:12.527Z,57.49
2018-10-03T17:17:40.730Z,57.35
2018-10-03T17:20:08.941Z,57.96
2018-10-03T17:22:37.741Z,58.33
2018-10-03T17:25:06.027Z,58.42
2018-10-03T17:27:34.265Z,58.81
2018-10-03T17:30:02.681Z,59.48
2018-10-03T17:32:31.021Z,59.82
2018-10-03T17:34:59.332Z,60.00
2018-10-03T17:37:27.590Z,60.70
2018-10-03T17:39:55.925Z,61.90
2018-10-03T17:42:24.285Z,62.39
2018-10-03T17:44:52.621Z,63.14
2018-10-03T17:47:21.332Z,63.19
2018-10-03T17:49:49.895Z,63.96
2018-10-03T17:52:18.294Z,64.16
2018-10-03T17:54:46.573Z,64.93
2018-10-03T17:57:14.958Z,64.84
2018-10-03T17:59:43.186Z,65.06
2018-10-03T18:02:12.888Z,65.03
2018-10-03T18:04:42.968Z,65.13
2018-10-03T18:07:11.177Z,64.77
2018-10-03T18:09:39.542Z,65.13
2018-10-03T18:12:07.783Z,65.02
2018-10-03T18:14:36.080Z,65.12
2018-10-03T18:17:04.483Z,65.19
2018-10-03T18:19:32.862Z,65.10
2018-10-03T18:22:01.705Z,65.21
2018-10-03T18:24:29.997Z,65.46
2018-10-03T18:26:58.507Z,65.26
2018-10-03T18:29:26.963Z,64.99
2018-10-03T18:31:55.267Z,65.10
2018-10-03T18:34:23.634Z,65.14
2018-10-03T18:36:51.882Z,65.49
2018-10-03T18:39:20.211Z,65.51
2018-10-03T18:41:48.795Z,65.45
2018-10-03T18:44:17.788Z,65.51
2018-10-03T18:46:46.421Z,66.25
2018-10-03T18:49:14.984Z,65.96
2018-10-03T18:51:43.306Z,66.24
2018-10-03T18:54:11.579Z,66.04
2018-10-03T18:56:40.729Z,66.19
2018-10-03T18:59:09.243Z,66.79
2018-10-03T19:01:37.534Z,67.24
2018-10-03T19:04:07.172Z,66.74
2018-10-03T19:06:35.579Z,67.04
2018-10-03T19:09:05.466Z,67.57
2018-10-03T19:11:34.443Z,67.69
2018-10-03T19:14:02.828Z,67.87
2018-10-03T19:16:31.271Z,68.84
2018-10-03T19:18:59.646Z,68.57
2018-10-03T19:21:28.060Z,68.47
2018-10-03T19:23:56.354Z,69.13
2018-10-03T19:26:24.807Z,69.31
2018-10-03T19:28:53.159Z,69.56
2018-10-03T19:31:21.739Z,69.63
2018-10-03T19:33:50.164Z,68.98
2018-10-03T19:36:18.826Z,69.51
2018-10-03T19:38:47.436Z,69.71
2018-10-03T19:41:16.157Z,69.47
2018-10-03T19:43:44.729Z,69.90
2018-10-03T19:46:13.097Z,71.62
2018-10-03T19:48:41.406Z,70.65
2018-10-03T19:51:09.831Z,70.92
2018-10-03T19:53:38.475Z,70.74
2018-10-03T19:56:06.754Z,70.41
2018-10-03T19:58:35.018Z,70.43
2018-10-03T20:01:04.664Z,70.69
2018-10-03T20:03:33.034Z,70.50
2018-10-03T20:06:01.305Z,70.59
2018-10-03T20:08:30.454Z,70.87
2018-10-03T20:10:58.733Z,70.30
2018-10-03T20:13:27.107Z,70.25
2018-10-03T20:15:55.429Z,70.18
2018-10-03T20:18:23.745Z,70.58
2018-10-03T20:20:52.375Z,70.87
2018-10-03T20:23:20.905Z,70.54
2018-10-03T20:25:49.355Z,70.78
2018-10-03T20:28:17.720Z,71.10
2018-10-03T20:30:47.018Z,70.60
2018-10-03T20:33:15.343Z,70.57
2018-10-03T20:35:43.641Z,70.41
2018-10-03T20:38:12.035Z,71.18
2018-10-03T20:40:40.445Z,71.25
2018-10-03T20:43:09.028Z,70.67
2018-10-03T20:45:37.359Z,70.61
2018-10-03T20:48:05.897Z,71.16
2018-10-03T20:50:41.211Z,70.71
2018-10-03T20:53:09.637Z,70.99
2018-10-03T20:55:37.841Z,71.24
2018-10-03T20:58:06.110Z,71.23
2018-10-03T21:00:34.533Z,70.77
2018-10-03T21:03:03.385Z,71.36
2018-10-03T21:05:31.655Z,70.85
2018-10-03T21:08:00.046Z,71.23
2018-10-03T21:10:28.297Z,71.61
2018-10-03T21:12:56.720Z,71.07
2018-10-03T21:15:24.921Z,70.79
2018-10-03T21:17:53.145Z,71.31
2018-10-03T21:20:21.312Z,71.23
2018-10-03T21:22:49.682Z,71.97
2018-10-03T21:25:17.906Z,71.13
2018-10-03T21:27:46.031Z,72.08
2018-10-03T21:30:14.268Z,71.35
2018-10-03T21:32:42.462Z,72.01
2018-10-03T21:35:10.627Z,72.03
2018-10-03T21:37:39.018Z,72.14
2018-10-03T21:40:07.151Z,72.12
2018-10-03T21:42:35.969Z,72.74
2018-10-03T21:45:04.112Z,72.62
2018-10-03T21:47:32.283Z,72.50
2018-10-03T21:50:00.463Z,73.41
2018-10-03T21:52:28.665Z,74.18
2018-10-03T21:54:56.845Z,73.68
2018-10-03T21:57:25.043Z,73.51
2018-10-03T21:59:53.226Z,73.62
2018-10-03T22:02:21.380Z,74.31
2018-10-03T22:04:49.765Z,74.42
2018-10-03T22:07:17.905Z,74.29
2018-10-03T22:09:46.083Z,73.74
2018-10-03T22:12:14.224Z,73.96
2018-10-03T22:14:42.345Z,74.20
2018-10-03T22:17:15.941Z,74.70
2018-10-03T22:19:44.075Z,74.42
2018-10-03T22:22:12.233Z,75.18
2018-10-03T22:24:40.431Z,74.50
2018-10-03T22:27:08.617Z,73.91
2018-10-03T22:29:36.826Z,74.31
2018-10-03T22:32:05.019Z,74.36
2018-10-03T22:34:33.273Z,74.11
2018-10-03T22:37:01.462Z,74.58
2018-10-03T22:39:29.675Z,74.37
2018-10-03T22:41:57.926Z,74.46
2018-10-03T22:44:26.119Z,73.95
2018-10-03T22:46:54.305Z,74.38
2018-10-03T22:49:22.485Z,74.86
2018-10-03T22:51:50.765Z,74.35
2018-10-03T22:54:19.002Z,74.90
2018-10-03T22:56:47.277Z,74.77
2018-10-03T22:59:15.379Z,75.09
2018-10-03T23:01:44.168Z,75.37
2018-10-03T23:04:12.254Z,76.04
2018-10-03T23:06:40.435Z,75.72
2018-10-03T23:09:08.619Z,75.75
2018-10-03T23:11:37.001Z,76.09
2018-10-03T23:14:05.265Z,76.56
2018-10-03T23:16:33.385Z,75.79
2018-10-03T23:19:01.832Z,76.29
2018-10-03T23:21:30.038Z,76.74
2018-10-03T23:23:58.160Z,77.18
2018-10-03T23:26:26.342Z,76.82
2018-10-03T23:28:54.551Z,77.67
2018-10-03T23:31:22.687Z,77.72
2018-10-03T23:33:50.847Z,77.80
2018-10-03T23:36:19.740Z,77.87
2018-10-03T23:38:47.913Z,77.90
2018-10-03T23:41:16.076Z,78.35
2018-10-03T23:43:44.331Z,78.67
2018-10-03T23:46:12.502Z,78.22
2018-10-03T23:48:40.659Z,78.80
2018-10-03T23:51:08.978Z,78.59
2018-10-03T23:53:37.213Z,78.40
2018-10-03T23:56:05.348Z,79.55
2018-10-03T23:58:33.508Z,79.36
